• Join FlightAware (Why Join?)
  • Login
  • US Flag 
03:26PM EST


 

Airport Tracker/Info


-or-


 

Live Flight TrackerFlight Track Log ✈ DAL3938 ✈ 03-May-2013 ✈ KAVL - KATL

Flight Track Log - Related Links

Times and Time Zones

All times are in EDT time to prevent confusion due to time zone crossing. See the DAL3938 flight status page for this flight to view local times or setup timezone preferences in your user account.

Time Position Orientation Groundspeed Altitude Reporting Facility
EDT Latitude Longitude Course Direction KTS MPH feet Rate Location/Type
09:31AM 35.3319 -82.5850 214° Southwest 257 296 6,100  Level Atlanta Center
09:32AM 35.2185 -82.7483 219° Southwest  Level FlightAware Approximate
09:32AM 35.2764 -82.6497 224° Southwest 271 312 8,700  Level Atlanta Center
09:33AM 35.1469 -82.8198 219° Southwest  Level FlightAware Approximate
09:33AM 35.2186 -82.7142 222° Southwest 278 320 11,400  Level Atlanta Center
09:34AM 35.0786 -82.8959 223° Southwest  Level FlightAware Approximate
09:34AM 35.1589 -82.7811 223° Southwest 285 328 13,200  Level Atlanta Center
09:35AM 35.0104 -82.9719 214° Southwest  Level FlightAware Approximate
09:35AM 35.0886 -82.8583 222° Southwest 300 345 14,000  Level Atlanta Center
09:36AM 34.9340 -83.0356 214° Southwest  Level FlightAware Approximate
09:36AM 35.0289 -82.9253 223° Southwest 305 351 14,000  Level Atlanta Center
09:37AM 34.9647 -83.0022 225° Southwest 313 360 14,000 -60 Level Atlanta Center
09:38AM 34.8925 -83.0739 219° Southwest 327 376 13,900 -60 Descending Atlanta Center
09:39AM 34.8178 -83.1431 217° Southwest 337 388 13,900  Level Atlanta Center
09:40AM 34.7431 -83.2147 218° Southwest 343 395 13,900  Level Atlanta Center
09:41AM 34.6686 -83.2886 219° Southwest 348 400 13,900  Level Atlanta Center
09:42AM 34.5958 -83.3600 219° Southwest 342 394 13,900  Level Atlanta Center
09:43AM 34.5253 -83.4211 216° Southwest 348 400 13,900  Level Atlanta Center
09:44AM 34.4506 -83.4947 219° Southwest 348 400 13,900 -60 Level Atlanta Center
09:45AM 34.3778 -83.5706 221° Southwest 353 406 13,800 -60 Descending Atlanta Center
09:46AM 34.3008 -83.6414 217° Southwest 353 406 13,800  Level Atlanta Center
09:47AM 34.2281 -83.7147 220° Southwest 346 398 13,800  Level Atlanta Center
09:48AM 34.1550 -83.7803 217° Southwest 341 392 13,800  Level Atlanta Center
09:49AM 34.0822 -83.8481 218° Southwest 325 374 13,800  Level Atlanta Center
09:50AM 34.0156 -83.9211 222° Southwest 313 360 13,800 60 Level Atlanta Center
09:50AM 34.0000 -83.9333 213° Southwest 306 352 13,900  Climbing Atlanta TRACON
09:51AM 33.9333 -84.0000 220° Southwest 302 348 13,800 -540 Descending Atlanta TRACON
09:52AM 33.8667 -84.0833 226° Southwest 307 353 12,900 -1,020 Descending Atlanta TRACON
09:53AM 33.8214 -84.1164 211° Southwest 307 353 12,200 -900 Descending Atlanta Center
09:53AM 33.8000 -84.1333 213° Southwest 306 352 12,000 -180 Descending Atlanta TRACON
09:54AM 33.7333 -84.2000 220° Southwest 312 359 12,000  Level Atlanta TRACON
09:55AM 33.7333 -84.3000 270° West 321 369 12,000 -720 Level Atlanta TRACON
09:56AM 33.7333 -84.4167 270° West 322 371 10,600 -1,440 Descending Atlanta TRACON
09:57AM 33.7333 -84.5000 270° West 307 353 9,200 -1,560 Descending Atlanta TRACON
09:58AM 33.7333 -84.6000 270° West 290 334 7,800 -1,560 Descending Atlanta TRACON
09:59AM 33.7333 -84.6833 270° West 280 322 6,300 -1,440 Descending Atlanta TRACON
10:00AM 33.7333 -84.7833 270° West 277 319 5,000 -660 Descending Atlanta TRACON
10:01AM 33.7333 -84.8833 270° West 265 305 5,000  Level Atlanta TRACON
10:02AM 33.6833 -84.9167 209° Southwest 223 257 5,000  Level Atlanta TRACON
10:03AM 33.6500 -84.8667 129° Southeast 156 180 5,000  Level Atlanta TRACON
10:04AM 33.6500 -84.8167 90° East 161 185 5,000  Level Atlanta TRACON
10:05AM 33.6500 -84.7667 90° East 159 183 5,000  Level Atlanta TRACON
10:06AM 33.6500 -84.7167 90° East 159 183 5,000 -120 Level Atlanta TRACON
10:07AM 33.6500 -84.6667 90° East 158 182 4,800 -600 Descending Atlanta TRACON
10:08AM 33.6500 -84.6167 90° East 158 182 3,900 -900 Descending Atlanta TRACON
10:09AM 33.6500 -84.5667 90° East 157 181 3,200 -780 Descending Atlanta TRACON